createdAt,value
2023-01-17T00:02:49.206Z,100.00
2023-01-17T00:06:11.239Z,100.00
2023-01-17T00:09:33.510Z,100.00
2023-01-17T00:12:37.031Z,100.00
2023-01-17T00:15:40.185Z,100.00
2023-01-17T00:19:03.129Z,100.00
2023-01-17T00:22:28.954Z,100.00
2023-01-17T00:25:53.949Z,100.00
2023-01-17T00:28:56.499Z,100.00
2023-01-17T00:31:59.277Z,100.00
2023-01-17T00:35:01.750Z,100.00
2023-01-17T00:38:11.126Z,100.00
2023-01-17T00:41:14.758Z,100.00
2023-01-17T00:44:36.812Z,100.00
2023-01-17T00:47:58.037Z,100.00
2023-01-17T00:51:22.157Z,100.00
2023-01-17T00:54:43.204Z,100.00
2023-01-17T00:58:04.281Z,100.00
2023-01-17T01:01:25.857Z,100.00
2023-01-17T01:04:47.444Z,100.00
2023-01-17T01:08:08.657Z,100.00
2023-01-17T01:11:36.635Z,100.00
2023-01-17T01:14:57.621Z,100.00
2023-01-17T01:18:26.682Z,100.00
2023-01-17T01:21:47.844Z,100.00
2023-01-17T01:25:09.437Z,100.00
2023-01-17T01:28:32.694Z,100.00
2023-01-17T01:31:54.494Z,100.00
2023-01-17T01:34:57.060Z,100.00
2023-01-17T01:38:02.435Z,100.00
2023-01-17T01:41:05.708Z,100.00
2023-01-17T01:44:47.329Z,100.00
2023-01-17T01:47:53.993Z,100.00
2023-01-17T01:50:56.973Z,100.00
2023-01-17T01:54:06.288Z,100.00
2023-01-17T01:57:12.768Z,100.00
2023-01-17T02:00:44.973Z,100.00
2023-01-17T02:03:49.385Z,100.00
2023-01-17T02:07:14.677Z,100.00
2023-01-17T02:10:17.736Z,100.00
2023-01-17T02:13:21.059Z,100.00
2023-01-17T02:16:51.507Z,100.00
2023-01-17T02:20:16.348Z,100.00
2023-01-17T02:23:22.368Z,100.00
2023-01-17T02:26:46.222Z,100.00
2023-01-17T02:30:26.744Z,100.00
2023-01-17T02:33:39.198Z,100.00
2023-01-17T02:36:49.889Z,100.00
2023-01-17T02:40:02.439Z,100.00
2023-01-17T02:43:11.945Z,100.00
2023-01-17T02:46:14.566Z,100.00
2023-01-17T02:49:22.123Z,100.00
2023-01-17T02:52:42.892Z,100.00
2023-01-17T02:55:45.781Z,100.00
2023-01-17T02:58:57.404Z,100.00
2023-01-17T03:02:06.106Z,100.00
2023-01-17T03:05:21.606Z,100.00
2023-01-17T03:08:25.973Z,100.00
2023-01-17T03:11:28.662Z,100.00
2023-01-17T03:14:31.931Z,100.00
2023-01-17T03:17:34.566Z,100.00
2023-01-17T03:20:37.975Z,100.00
2023-01-17T03:23:40.597Z,100.00
2023-01-17T03:26:47.941Z,100.00
2023-01-17T03:29:50.588Z,100.00
2023-01-17T03:32:53.476Z,100.00
2023-01-17T03:35:58.259Z,100.00
2023-01-17T03:39:03.020Z,100.00
2023-01-17T03:42:05.686Z,100.00
2023-01-17T03:45:09.189Z,100.00
2023-01-17T03:48:12.040Z,100.00
2023-01-17T03:51:15.629Z,100.00
2023-01-17T03:54:18.238Z,100.00
2023-01-17T03:57:21.100Z,100.00
2023-01-17T04:00:23.891Z,100.00
2023-01-17T04:03:27.051Z,100.00
2023-01-17T04:06:29.865Z,100.00
2023-01-17T04:09:34.569Z,100.00
2023-01-17T04:12:37.180Z,100.00
2023-01-17T04:15:40.699Z,100.00
2023-01-17T04:18:44.750Z,100.00
2023-01-17T04:21:47.673Z,100.00
2023-01-17T04:24:50.333Z,100.00
2023-01-17T04:27:54.314Z,100.00
2023-01-17T04:31:00.692Z,100.00
2023-01-17T04:34:03.681Z,100.00
2023-01-17T04:37:06.516Z,100.00
2023-01-17T04:40:11.049Z,100.00
2023-01-17T04:43:13.644Z,100.00
2023-01-17T04:46:16.533Z,100.00
2023-01-17T04:49:20.110Z,100.00
2023-01-17T04:52:23.064Z,100.00
2023-01-17T04:55:26.896Z,100.00
2023-01-17T04:58:31.288Z,100.00
2023-01-17T05:01:34.075Z,100.00
2023-01-17T05:04:37.005Z,100.00
2023-01-17T05:07:39.618Z,100.00
2023-01-17T05:10:42.542Z,100.00
2023-01-17T05:13:47.491Z,100.00
2023-01-17T05:16:55.831Z,100.00
2023-01-17T05:19:58.535Z,100.00
2023-01-17T05:23:02.025Z,100.00
2023-01-17T05:26:04.699Z,100.00
2023-01-17T05:29:07.659Z,100.00
2023-01-17T05:32:10.320Z,100.00
2023-01-17T05:35:13.276Z,100.00
2023-01-17T05:38:16.121Z,100.00
2023-01-17T05:41:19.088Z,100.00
2023-01-17T05:44:21.664Z,100.00
2023-01-17T05:47:24.578Z,100.00
2023-01-17T05:50:33.324Z,100.00
2023-01-17T05:53:36.278Z,100.00
2023-01-17T05:56:39.071Z,100.00
2023-01-17T05:59:42.785Z,100.00
2023-01-17T06:02:46.267Z,100.00
2023-01-17T06:05:50.195Z,100.00
2023-01-17T06:08:53.073Z,100.00
2023-01-17T06:11:55.952Z,100.00
2023-01-17T06:14:58.596Z,100.00
2023-01-17T06:18:12.569Z,100.00
2023-01-17T06:21:15.331Z,100.00
2023-01-17T06:24:18.237Z,100.00
2023-01-17T06:27:21.120Z,100.00
2023-01-17T06:30:24.018Z,100.00
2023-01-17T06:33:26.908Z,100.00
2023-01-17T06:36:30.509Z,100.00
2023-01-17T06:39:33.629Z,100.00
2023-01-17T06:42:36.553Z,100.00
2023-01-17T06:45:39.171Z,100.00
2023-01-17T06:48:43.706Z,100.00
2023-01-17T06:51:46.687Z,100.00
2023-01-17T06:54:49.896Z,100.00
2023-01-17T06:57:52.599Z,100.00
2023-01-17T13:17:00.681Z,80.04
2023-01-17T13:20:19.335Z,80.83
2023-01-17T13:23:50.315Z,81.17
2023-01-17T13:26:56.126Z,81.83
2023-01-17T13:30:35.891Z,81.63
2023-01-17T13:33:44.909Z,82.21
2023-01-17T13:37:21.008Z,83.15
2023-01-17T13:40:33.965Z,83.94
2023-01-17T13:44:02.094Z,84.58
2023-01-17T13:47:11.419Z,85.37
2023-01-17T13:50:38.998Z,86.24
2023-01-17T13:53:41.780Z,87.00
2023-01-17T13:56:44.488Z,87.21
2023-01-17T13:59:47.507Z,87.37
2023-01-17T14:02:51.622Z,87.75
2023-01-17T14:05:58.155Z,87.40
2023-01-17T14:09:25.404Z,87.39
2023-01-17T14:12:32.920Z,87.76
2023-01-17T14:15:49.851Z,88.18
2023-01-17T14:18:55.534Z,87.66
2023-01-17T14:22:16.844Z,88.17
2023-01-17T14:25:31.216Z,88.75
2023-01-17T14:28:33.871Z,89.61
2023-01-17T14:31:37.759Z,90.95
2023-01-17T14:34:40.615Z,92.55
2023-01-17T14:37:47.749Z,93.74
2023-01-17T14:41:04.655Z,95.15
2023-01-17T14:44:11.275Z,96.43
2023-01-17T14:47:15.953Z,96.65
2023-01-17T14:50:21.816Z,98.08
2023-01-17T14:53:29.089Z,99.09
2023-01-17T14:56:33.359Z,100.00
2023-01-17T14:59:35.920Z,100.00
2023-01-17T15:02:43.994Z,100.00
2023-01-17T15:05:50.121Z,100.00
2023-01-17T15:08:58.410Z,100.00
2023-01-17T15:12:02.662Z,100.00
2023-01-17T15:15:38.352Z,100.00
2023-01-17T15:18:42.573Z,100.00
2023-01-17T15:21:50.749Z,100.00
2023-01-17T15:24:54.347Z,100.00
2023-01-17T15:27:57.585Z,100.00
2023-01-17T15:31:10.959Z,100.00
2023-01-17T15:34:38.647Z,100.00
2023-01-17T15:37:41.818Z,100.00
2023-01-17T15:40:45.780Z,100.00
2023-01-17T15:43:48.368Z,100.00
2023-01-17T15:46:51.334Z,100.00
2023-01-17T15:49:54.477Z,100.00
2023-01-17T15:53:06.711Z,100.00
2023-01-17T15:56:24.543Z,100.00
2023-01-17T15:59:42.980Z,100.00
2023-01-17T16:02:58.893Z,100.00
2023-01-17T16:06:03.125Z,100.00
2023-01-17T16:09:22.470Z,100.00
2023-01-17T16:12:25.409Z,100.00
2023-01-17T16:15:29.282Z,100.00
2023-01-17T16:18:32.246Z,100.00
2023-01-17T16:21:35.407Z,100.00
2023-01-17T16:24:38.277Z,100.00
2023-01-17T16:27:43.132Z,100.00
2023-01-17T16:30:48.990Z,100.00
2023-01-17T16:33:52.545Z,100.00
2023-01-17T16:36:55.477Z,100.00
2023-01-17T16:39:58.336Z,100.00
2023-01-17T16:43:01.354Z,100.00
2023-01-17T16:46:04.022Z,100.00
2023-01-17T16:49:19.452Z,100.00
2023-01-17T16:52:22.512Z,100.00
2023-01-17T16:55:26.628Z,100.00
2023-01-17T16:58:29.228Z,100.00
2023-01-17T17:01:32.314Z,100.00
2023-01-17T17:04:35.032Z,100.00
2023-01-17T17:07:45.496Z,100.00
2023-01-17T17:10:48.335Z,100.00
2023-01-17T17:13:52.183Z,100.00
2023-01-17T17:16:56.269Z,100.00
2023-01-17T17:19:59.206Z,100.00
2023-01-17T17:23:01.778Z,100.00
2023-01-17T17:26:05.721Z,100.00
2023-01-17T17:29:12.082Z,100.00
2023-01-17T17:32:17.277Z,100.00
2023-01-17T17:35:19.892Z,100.00
2023-01-17T17:38:22.844Z,100.00
2023-01-17T17:41:28.330Z,100.00
2023-01-17T17:44:31.294Z,100.00
2023-01-17T17:47:34.057Z,100.00
2023-01-17T17:50:36.978Z,100.00
2023-01-17T17:53:39.558Z,100.00
2023-01-17T17:56:46.557Z,100.00
2023-01-17T17:59:49.201Z,100.00
2023-01-17T18:02:52.111Z,100.00
2023-01-17T18:06:01.835Z,100.00
2023-01-17T18:09:09.099Z,100.00
2023-01-17T18:12:12.047Z,100.00
2023-01-17T18:15:15.379Z,100.00
2023-01-17T18:18:18.416Z,100.00
2023-01-17T18:21:25.327Z,100.00
2023-01-17T18:24:28.448Z,100.00
2023-01-17T18:27:31.321Z,100.00
2023-01-17T18:30:38.571Z,100.00
2023-01-17T18:33:41.521Z,100.00
2023-01-17T18:36:44.746Z,100.00
2023-01-17T18:39:47.612Z,100.00
2023-01-17T18:42:51.052Z,100.00
2023-01-17T18:45:54.009Z,100.00
2023-01-17T18:48:57.904Z,100.00
2023-01-17T18:52:00.988Z,100.00
2023-01-17T18:55:04.666Z,100.00
2023-01-17T18:58:09.235Z,99.45
2023-01-17T19:01:22.294Z,98.87
2023-01-17T19:04:25.660Z,98.11
2023-01-17T19:07:31.011Z,98.34
2023-01-17T19:10:33.796Z,98.86
2023-01-17T19:13:38.763Z,98.06
2023-01-17T19:16:42.315Z,97.55
2023-01-17T19:19:46.635Z,96.68
2023-01-17T19:22:52.719Z,97.04
2023-01-17T19:25:56.606Z,97.73
2023-01-17T19:29:00.355Z,96.40
2023-01-17T19:32:03.409Z,97.65
2023-01-17T19:35:08.623Z,97.01
2023-01-17T19:38:11.683Z,97.06
2023-01-17T19:41:18.429Z,96.52
2023-01-17T19:44:21.486Z,97.46
2023-01-17T19:47:24.252Z,97.68
2023-01-17T19:50:29.670Z,96.89
2023-01-17T19:53:33.004Z,96.46
2023-01-17T19:56:36.121Z,96.84
2023-01-17T19:59:38.736Z,96.35
2023-01-17T20:02:41.873Z,96.68
2023-01-17T20:05:46.209Z,97.53
2023-01-17T20:08:49.088Z,98.04
2023-01-17T20:11:52.224Z,97.62
2023-01-17T20:14:55.012Z,97.44
2023-01-17T20:17:58.314Z,97.21
2023-01-17T20:21:23.361Z,97.57
2023-01-17T20:24:26.672Z,96.82
2023-01-17T20:27:29.326Z,97.64
2023-01-17T20:30:34.638Z,97.52
2023-01-17T20:33:37.581Z,96.96
2023-01-17T20:36:42.199Z,97.07
2023-01-17T20:39:46.056Z,96.28
2023-01-17T20:42:48.992Z,96.36
2023-01-17T20:46:03.452Z,96.92
2023-01-17T20:49:13.404Z,96.19
2023-01-17T20:52:16.660Z,97.72
2023-01-17T20:55:19.605Z,96.88
2023-01-17T20:58:27.604Z,97.27
2023-01-17T21:01:30.781Z,97.62
2023-01-17T21:04:33.422Z,98.91
2023-01-17T21:07:37.290Z,98.99
2023-01-17T21:10:39.823Z,99.39
2023-01-17T21:13:43.103Z,98.01
2023-01-17T21:16:45.808Z,98.81
2023-01-17T21:19:48.693Z,98.88
2023-01-17T21:22:52.285Z,98.98
2023-01-17T21:25:59.137Z,100.00
2023-01-17T21:29:02.089Z,100.00
2023-01-17T21:32:05.599Z,100.00
2023-01-17T21:35:08.596Z,100.00
2023-01-17T21:38:12.800Z,99.30
2023-01-17T21:41:16.050Z,98.24
2023-01-17T21:44:21.712Z,97.15
2023-01-17T21:47:24.412Z,97.81
2023-01-17T21:50:33.305Z,97.51
2023-01-17T21:53:38.375Z,97.88
2023-01-17T21:57:00.322Z,98.28
2023-01-17T22:00:06.470Z,98.98
2023-01-17T22:03:13.996Z,99.21
2023-01-17T22:06:18.055Z,99.50
2023-01-17T22:09:23.996Z,99.10
2023-01-17T22:12:27.139Z,98.38
2023-01-17T22:15:29.794Z,97.64
2023-01-17T22:18:39.048Z,97.93
2023-01-17T22:21:43.908Z,97.67
2023-01-17T22:24:46.960Z,97.43
2023-01-17T22:27:49.904Z,96.68
2023-01-17T22:30:52.967Z,97.07
2023-01-17T22:33:58.233Z,97.41
2023-01-17T22:37:02.474Z,98.02
2023-01-17T22:40:05.976Z,98.08
2023-01-17T22:43:08.900Z,98.40
2023-01-17T22:46:14.682Z,97.85
2023-01-17T22:49:18.651Z,98.36
2023-01-17T22:52:21.249Z,99.43
2023-01-17T22:55:24.267Z,99.64
2023-01-17T22:58:28.772Z,99.61
2023-01-17T23:01:32.961Z,100.00
2023-01-17T23:04:36.036Z,100.00
2023-01-17T23:07:44.917Z,100.00
2023-01-17T23:11:06.152Z,100.00
2023-01-17T23:14:52.691Z,100.00
2023-01-17T23:18:14.072Z,100.00
2023-01-17T23:21:17.439Z,100.00
2023-01-17T23:24:20.171Z,100.00
2023-01-17T23:27:47.651Z,100.00
2023-01-17T23:30:50.310Z,100.00
2023-01-17T23:33:53.177Z,100.00
2023-01-17T23:36:55.766Z,100.00
2023-01-17T23:39:58.662Z,100.00
2023-01-17T23:43:19.666Z,100.00
2023-01-17T23:46:25.340Z,100.00
2023-01-17T23:49:29.656Z,100.00
2023-01-17T23:52:32.537Z,100.00
2023-01-17T23:55:39.801Z,100.00
2023-01-17T23:58:42.750Z,100.00
